createdAt,value
2023-02-23T00:02:29.207Z,8.70
2023-02-23T00:05:38.080Z,8.70
2023-02-23T00:08:41.473Z,8.60
2023-02-23T00:11:44.459Z,8.60
2023-02-23T00:14:47.432Z,8.70
2023-02-23T00:17:51.751Z,8.60
2023-02-23T00:20:59.507Z,8.60
2023-02-23T00:24:04.626Z,8.50
2023-02-23T00:27:07.644Z,8.50
2023-02-23T00:30:12.290Z,8.50
2023-02-23T00:33:15.285Z,8.40
2023-02-23T00:36:19.586Z,8.40
2023-02-23T00:39:26.630Z,8.40
2023-02-23T00:42:32.185Z,8.40
2023-02-23T00:45:36.588Z,8.40
2023-02-23T00:48:40.201Z,8.40
2023-02-23T00:51:44.831Z,8.30
2023-02-23T00:54:47.874Z,8.30
2023-02-23T00:57:51.238Z,8.30
2023-02-23T01:00:54.978Z,8.30
2023-02-23T01:03:58.344Z,8.20
2023-02-23T01:07:06.478Z,8.30
2023-02-23T01:10:19.450Z,8.30
2023-02-23T01:13:23.569Z,8.30
2023-02-23T01:16:28.966Z,8.30
2023-02-23T01:19:34.825Z,8.20
2023-02-23T01:22:39.229Z,8.30
2023-02-23T01:25:42.956Z,8.30
2023-02-23T01:28:49.161Z,8.30
2023-02-23T01:31:52.327Z,8.30
2023-02-23T01:34:55.469Z,8.30
2023-02-23T01:38:00.334Z,8.30
2023-02-23T01:41:03.771Z,8.20
2023-02-23T01:44:09.223Z,8.20
2023-02-23T01:47:15.127Z,8.20
2023-02-23T01:50:19.886Z,8.20
2023-02-23T01:53:26.091Z,8.30
2023-02-23T01:56:33.133Z,8.30
2023-02-23T01:59:40.776Z,8.30
2023-02-23T02:02:48.776Z,8.30
2023-02-23T02:05:52.921Z,8.30
2023-02-23T02:09:01.009Z,8.30
2023-02-23T02:12:08.458Z,8.30
2023-02-23T02:15:17.559Z,8.30
2023-02-23T02:18:31.461Z,8.30
2023-02-23T02:22:04.840Z,8.30
2023-02-23T02:25:32.453Z,8.30
2023-02-23T02:29:11.246Z,8.30
2023-02-23T02:32:57.362Z,8.30
2023-02-23T02:36:26.705Z,8.30
2023-02-23T02:39:41.074Z,8.30
2023-02-23T02:42:55.591Z,8.40
2023-02-23T02:46:04.634Z,8.40
2023-02-23T02:49:12.140Z,8.40
2023-02-23T02:52:20.220Z,8.40
2023-02-23T02:55:28.526Z,8.40
2023-02-23T02:58:33.592Z,8.50
2023-02-23T03:01:54.313Z,8.50
2023-02-23T03:05:15.220Z,8.40
2023-02-23T03:08:40.318Z,8.40
2023-02-23T03:12:11.287Z,8.40
2023-02-23T03:15:46.890Z,8.30
2023-02-23T03:19:25.380Z,8.20
2023-02-23T03:22:50.959Z,8.20
2023-02-23T03:26:20.594Z,8.20
2023-02-23T03:29:50.301Z,8.20
2023-02-23T03:33:15.240Z,8.20
2023-02-23T03:36:42.901Z,8.20
2023-02-23T03:40:10.753Z,8.20
2023-02-23T03:43:36.394Z,8.30
2023-02-23T03:46:59.896Z,8.40
2023-02-23T03:50:26.612Z,8.40
2023-02-23T03:53:53.664Z,8.40
2023-02-23T03:57:16.951Z,8.40
2023-02-23T04:00:49.241Z,8.40
2023-02-23T04:04:14.749Z,8.40
2023-02-23T04:07:37.726Z,8.30
2023-02-23T04:11:05.163Z,8.30
2023-02-23T04:14:16.347Z,8.30
2023-02-23T04:17:25.693Z,8.30
2023-02-23T04:20:30.269Z,8.40
2023-02-23T04:23:33.787Z,8.40
2023-02-23T04:26:37.178Z,8.40
2023-02-23T04:29:40.577Z,8.40
2023-02-23T04:32:44.479Z,8.40
2023-02-23T04:35:49.389Z,8.50
2023-02-23T04:38:52.570Z,8.40
2023-02-23T04:41:55.706Z,8.40
2023-02-23T04:44:59.131Z,8.30
2023-02-23T04:48:02.268Z,8.30
2023-02-23T04:51:07.542Z,8.40
2023-02-23T04:54:10.626Z,8.50
2023-02-23T04:57:13.782Z,8.50
2023-02-23T05:00:18.091Z,8.50
2023-02-23T05:03:21.292Z,8.50
2023-02-23T05:06:25.649Z,8.40
2023-02-23T05:09:28.809Z,8.50
2023-02-23T05:12:32.140Z,8.50
2023-02-23T05:15:35.409Z,8.60
2023-02-23T05:18:38.597Z,8.60
2023-02-23T05:21:43.000Z,8.70
2023-02-23T05:24:46.467Z,8.60
2023-02-23T05:27:49.672Z,8.70
2023-02-23T05:30:52.713Z,8.70
2023-02-23T05:33:55.810Z,8.70
2023-02-23T05:37:00.235Z,8.70
2023-02-23T05:40:03.750Z,8.70
2023-02-23T05:43:06.977Z,8.80
2023-02-23T05:46:11.406Z,8.80
2023-02-23T05:49:14.824Z,8.80
2023-02-23T05:52:19.288Z,8.80
2023-02-23T05:55:22.423Z,8.80
2023-02-23T05:58:25.643Z,8.80
2023-02-23T06:01:29.066Z,8.80
2023-02-23T06:04:32.482Z,8.90
2023-02-23T06:07:37.518Z,8.90
2023-02-23T06:10:40.667Z,8.90
2023-02-23T06:13:43.835Z,9.00
2023-02-23T06:16:48.752Z,8.90
2023-02-23T06:19:51.810Z,8.90
2023-02-23T06:22:56.753Z,8.90
2023-02-23T06:26:00.676Z,9.00
2023-02-23T06:29:03.721Z,9.00
2023-02-23T06:32:07.465Z,9.00
2023-02-23T06:35:11.032Z,9.10
2023-02-23T06:38:16.274Z,9.10
2023-02-23T06:41:19.637Z,9.00
2023-02-23T06:44:23.403Z,9.00
2023-02-23T06:47:26.677Z,9.00
2023-02-23T06:50:30.852Z,9.00
2023-02-23T06:53:35.604Z,9.00
2023-02-23T06:56:38.710Z,9.00
2023-02-23T06:59:42.672Z,9.00
2023-02-23T07:02:45.875Z,9.10
2023-02-23T07:05:50.158Z,9.10
2023-02-23T07:08:54.694Z,9.10
2023-02-23T07:11:58.097Z,9.20
2023-02-23T07:15:01.461Z,9.20
2023-02-23T07:18:04.983Z,9.10
2023-02-23T07:21:10.713Z,9.20
2023-02-23T07:24:15.141Z,9.20
2023-02-23T07:27:18.476Z,9.10
2023-02-23T07:30:26.348Z,9.20
2023-02-23T07:33:29.431Z,9.20
2023-02-23T07:36:32.540Z,9.10
2023-02-23T07:39:37.099Z,9.10
2023-02-23T07:42:40.201Z,9.20
2023-02-23T07:45:45.542Z,9.10
2023-02-23T07:48:49.508Z,9.10
2023-02-23T07:51:52.699Z,9.10
2023-02-23T07:54:57.700Z,9.20
2023-02-23T07:58:01.392Z,9.20
2023-02-23T08:01:04.709Z,9.20
2023-02-23T08:04:07.820Z,9.20
2023-02-23T08:07:11.107Z,9.20
2023-02-23T08:10:15.927Z,9.20
2023-02-23T08:13:19.299Z,9.00
2023-02-23T08:16:22.378Z,9.10
2023-02-23T08:19:25.536Z,9.00
2023-02-23T08:22:30.466Z,9.00
2023-02-23T08:25:36.903Z,9.00
2023-02-23T08:28:41.812Z,9.00
2023-02-23T08:31:45.029Z,9.00
2023-02-23T08:34:48.128Z,9.00
2023-02-23T08:37:51.324Z,9.00
2023-02-23T08:40:56.254Z,9.00
2023-02-23T08:43:59.924Z,9.10
2023-02-23T08:47:04.563Z,9.10
2023-02-23T08:50:11.014Z,9.10
2023-02-23T08:53:14.335Z,9.20
2023-02-23T08:56:18.880Z,9.20
2023-02-23T08:59:22.110Z,9.20
2023-02-23T09:02:25.251Z,9.10
2023-02-23T09:05:28.756Z,9.20
2023-02-23T09:08:32.099Z,9.10
2023-02-23T09:11:36.637Z,9.10
2023-02-23T09:14:40.401Z,9.10
2023-02-23T09:17:45.015Z,9.10
2023-02-23T09:20:48.306Z,9.20
2023-02-23T09:23:52.761Z,9.20
2023-02-23T09:26:57.275Z,9.20
2023-02-23T09:30:00.498Z,9.20
2023-02-23T09:33:03.859Z,9.20
2023-02-23T09:36:08.546Z,9.20
2023-02-23T09:39:12.280Z,9.10
2023-02-23T09:42:30.853Z,9.10
2023-02-23T09:45:41.146Z,9.10
2023-02-23T09:48:44.333Z,9.00
2023-02-23T09:51:57.623Z,8.90
2023-02-23T09:55:01.070Z,8.90
2023-02-23T09:58:09.487Z,8.90
2023-02-23T10:01:46.222Z,8.90
2023-02-23T10:04:54.240Z,8.90
2023-02-23T10:08:07.337Z,8.80
2023-02-23T10:11:22.253Z,8.90
2023-02-23T10:14:44.121Z,9.00
2023-02-23T10:18:03.155Z,9.00
2023-02-23T10:21:10.599Z,9.20
2023-02-23T10:24:19.396Z,9.20
2023-02-23T10:27:24.930Z,9.10
2023-02-23T10:30:31.404Z,9.10
2023-02-23T10:33:40.026Z,9.10
2023-02-23T10:36:49.114Z,9.20
2023-02-23T10:39:53.549Z,9.20
2023-02-23T10:42:58.437Z,9.20
2023-02-23T10:46:04.487Z,9.20
2023-02-23T10:49:11.473Z,9.20
2023-02-23T10:52:18.016Z,9.20
2023-02-23T10:55:25.301Z,9.20
2023-02-23T10:58:29.558Z,9.10
2023-02-23T11:02:00.428Z,9.00
2023-02-23T11:05:06.985Z,8.90
2023-02-23T11:08:20.688Z,9.00
2023-02-23T11:11:28.725Z,9.00
2023-02-23T11:14:33.091Z,9.00
2023-02-23T11:17:38.871Z,9.00
2023-02-23T11:20:43.258Z,9.10
2023-02-23T11:23:46.484Z,9.10
2023-02-23T11:26:51.505Z,9.20
2023-02-23T11:29:58.138Z,9.40
2023-02-23T11:33:10.622Z,9.40
2023-02-23T11:36:26.494Z,9.60
2023-02-23T11:39:29.563Z,9.70
2023-02-23T11:42:34.158Z,9.70
2023-02-23T11:45:45.597Z,9.70
2023-02-23T11:48:54.039Z,9.80
2023-02-23T11:51:59.380Z,9.90
2023-02-23T11:55:07.809Z,9.90
2023-02-23T11:58:20.961Z,9.90
2023-02-23T12:01:35.877Z,10.00
2023-02-23T12:04:47.445Z,10.00
2023-02-23T12:07:57.752Z,10.10
2023-02-23T12:11:05.360Z,10.10
2023-02-23T12:14:17.413Z,10.20
2023-02-23T12:17:25.042Z,10.20
2023-02-23T12:20:32.890Z,10.10
2023-02-23T12:23:39.939Z,10.00
2023-02-23T12:26:48.857Z,10.00
2023-02-23T12:30:06.286Z,10.00
2023-02-23T12:33:16.723Z,10.10
2023-02-23T12:36:29.882Z,10.00
2023-02-23T12:39:36.112Z,9.90
2023-02-23T12:42:43.986Z,9.80
2023-02-23T12:45:53.425Z,9.80
2023-02-23T12:49:04.060Z,9.80
2023-02-23T12:52:14.775Z,9.70
2023-02-23T12:55:30.135Z,9.70
2023-02-23T12:58:42.490Z,9.80
2023-02-23T13:01:51.272Z,9.70
2023-02-23T13:05:17.389Z,9.60
2023-02-23T13:08:30.603Z,9.60
2023-02-23T13:11:54.292Z,9.70
2023-02-23T13:15:03.905Z,9.70
2023-02-23T13:18:14.332Z,9.70
2023-02-23T13:21:25.286Z,9.70
2023-02-23T13:24:36.607Z,9.70
2023-02-23T13:27:44.939Z,9.70
2023-02-23T13:30:48.250Z,9.70
2023-02-23T13:33:51.974Z,9.70
2023-02-23T13:36:56.290Z,9.80
2023-02-23T13:40:12.543Z,9.80
2023-02-23T13:43:23.073Z,9.80
2023-02-23T13:46:33.339Z,9.80
2023-02-23T13:49:41.957Z,9.80
2023-02-23T13:52:47.230Z,9.80
2023-02-23T13:55:54.218Z,9.80
2023-02-23T13:59:02.447Z,9.80
2023-02-23T14:02:34.616Z,9.80
2023-02-23T14:05:44.483Z,9.80
2023-02-23T14:08:54.145Z,9.90
2023-02-23T14:12:16.976Z,9.80
2023-02-23T14:15:41.912Z,9.90
2023-02-23T14:19:13.297Z,9.90
2023-02-23T14:22:22.108Z,9.80
2023-02-23T14:25:47.926Z,9.90
2023-02-23T14:29:26.559Z,9.80
2023-02-23T14:32:31.908Z,9.80
2023-02-23T14:35:44.850Z,9.80
2023-02-23T14:38:48.536Z,9.80
2023-02-23T14:41:56.764Z,9.80
2023-02-23T14:45:08.650Z,9.80
2023-02-23T14:48:15.734Z,9.80
2023-02-23T14:51:25.207Z,9.80
2023-02-23T14:54:32.348Z,9.90
2023-02-23T14:57:38.150Z,9.90
2023-02-23T15:00:44.946Z,9.90
2023-02-23T15:04:05.980Z,10.00
2023-02-23T15:07:16.888Z,10.00
2023-02-23T15:10:25.562Z,9.80
2023-02-23T15:13:31.099Z,9.90
2023-02-23T15:16:37.409Z,10.00
2023-02-23T15:19:41.021Z,10.00
2023-02-23T15:22:47.362Z,9.90
2023-02-23T15:25:51.338Z,9.80
2023-02-23T15:28:56.281Z,9.90
2023-02-23T15:32:16.059Z,9.90
2023-02-23T15:35:19.622Z,9.80
2023-02-23T15:38:42.817Z,9.80
2023-02-23T15:41:50.229Z,9.80
2023-02-23T15:44:59.948Z,9.70
2023-02-23T15:48:07.521Z,9.60
2023-02-23T15:51:22.913Z,9.50
2023-02-23T15:54:29.848Z,9.50
2023-02-23T15:57:47.498Z,9.50
2023-02-23T16:00:56.358Z,9.40
2023-02-23T16:04:04.243Z,9.30
2023-02-23T16:07:16.137Z,9.20
2023-02-23T16:10:24.135Z,9.20
2023-02-23T16:13:27.636Z,9.20
2023-02-23T16:16:31.221Z,9.10
2023-02-23T16:19:40.818Z,9.00
2023-02-23T16:22:46.986Z,8.90
2023-02-23T16:25:55.490Z,8.90
2023-02-23T16:29:00.816Z,8.90
2023-02-23T16:32:15.898Z,8.90
2023-02-23T16:35:21.664Z,8.90
2023-02-23T16:38:27.521Z,8.90
2023-02-23T16:41:33.250Z,8.90
2023-02-23T16:44:43.408Z,8.80
2023-02-23T16:47:48.812Z,8.80
2023-02-23T16:50:53.425Z,8.80
2023-02-23T16:53:56.412Z,8.80
2023-02-23T16:56:59.481Z,8.70
2023-02-23T17:00:14.531Z,8.60
2023-02-23T17:03:21.221Z,8.60
2023-02-23T17:06:26.084Z,8.60
2023-02-23T17:09:29.043Z,8.50
2023-02-23T17:12:32.886Z,8.50
2023-02-23T17:15:38.294Z,8.40
2023-02-23T17:18:43.066Z,8.40
2023-02-23T17:21:48.710Z,8.30
2023-02-23T17:24:51.656Z,8.20
2023-02-23T17:27:55.397Z,8.10
2023-02-23T17:30:58.467Z,8.10
2023-02-23T17:34:01.547Z,8.10
2023-02-23T17:37:07.985Z,8.00
2023-02-23T17:40:13.649Z,8.00
2023-02-23T17:43:17.092Z,8.00
2023-02-23T17:46:20.365Z,7.90
2023-02-23T17:49:23.437Z,7.90
2023-02-23T17:52:28.694Z,7.90
2023-02-23T17:55:31.679Z,7.80
2023-02-23T17:58:34.901Z,7.90
2023-02-23T18:01:38.146Z,7.90
2023-02-23T18:04:41.575Z,7.90
2023-02-23T18:07:48.307Z,7.80
2023-02-23T18:10:52.725Z,7.80
2023-02-23T18:13:55.639Z,7.80
2023-02-23T18:16:58.584Z,7.80
2023-02-23T18:20:01.737Z,7.80
2023-02-23T18:23:06.053Z,7.70
2023-02-23T18:26:10.829Z,7.70
2023-02-23T18:29:14.931Z,7.70
2023-02-23T18:32:18.104Z,7.70
2023-02-23T18:35:21.164Z,7.60
2023-02-23T18:38:25.656Z,7.50
2023-02-23T18:41:30.743Z,7.50
2023-02-23T18:44:35.257Z,7.50
2023-02-23T18:47:38.339Z,7.50
2023-02-23T18:50:41.412Z,7.40
2023-02-23T18:53:45.879Z,7.30
2023-02-23T18:56:50.058Z,7.30
2023-02-23T18:59:52.994Z,7.30
2023-02-23T19:02:55.899Z,7.20
2023-02-23T19:05:59.036Z,7.10
2023-02-23T19:09:07.776Z,7.00
2023-02-23T19:12:11.817Z,6.90
2023-02-23T19:15:14.773Z,6.80
2023-02-23T19:18:17.727Z,6.70
2023-02-23T19:21:22.636Z,6.50
2023-02-23T19:24:27.090Z,6.40
2023-02-23T19:27:30.077Z,6.30
2023-02-23T19:30:33.192Z,6.30
2023-02-23T19:33:38.034Z,6.20
2023-02-23T19:36:41.192Z,6.10
2023-02-23T19:39:46.421Z,6.00
2023-02-23T19:42:50.029Z,6.00
2023-02-23T19:45:53.240Z,6.00
2023-02-23T19:48:56.603Z,6.00
2023-02-23T19:52:00.706Z,6.10
2023-02-23T19:55:05.707Z,6.10
2023-02-23T19:58:08.718Z,5.90
2023-02-23T20:01:14.693Z,5.80
2023-02-23T20:04:17.881Z,5.80
2023-02-23T20:07:20.977Z,5.70
2023-02-23T20:10:28.990Z,5.70
2023-02-23T20:13:31.948Z,5.70
2023-02-23T20:16:35.492Z,5.60
2023-02-23T20:19:38.689Z,5.60
2023-02-23T20:22:43.244Z,5.60
2023-02-23T20:25:47.709Z,5.60
2023-02-23T20:28:51.204Z,5.70
2023-02-23T20:31:54.395Z,5.70
2023-02-23T20:35:00.878Z,5.70
2023-02-23T20:38:04.603Z,5.70
2023-02-23T20:41:09.646Z,5.80
2023-02-23T20:44:12.816Z,5.80
2023-02-23T20:47:16.324Z,5.90
2023-02-23T20:50:19.484Z,5.90
2023-02-23T20:53:22.946Z,5.90
2023-02-23T20:56:32.778Z,5.80
2023-02-23T20:59:36.910Z,5.90
2023-02-23T21:02:41.954Z,6.00
2023-02-23T21:05:45.146Z,6.00
2023-02-23T21:08:49.921Z,6.00
2023-02-23T21:11:54.734Z,6.00
2023-02-23T21:14:57.665Z,6.00
2023-02-23T21:18:00.766Z,6.00
2023-02-23T21:21:09.388Z,6.10
2023-02-23T21:24:13.354Z,6.10
2023-02-23T21:27:17.699Z,6.10
2023-02-23T21:30:22.750Z,6.10
2023-02-23T21:33:25.792Z,6.10
2023-02-23T21:36:28.837Z,6.10
2023-02-23T21:39:31.824Z,6.10
2023-02-23T21:42:36.341Z,6.10
2023-02-23T21:45:40.013Z,6.10
2023-02-23T21:48:44.079Z,6.20
2023-02-23T21:51:47.083Z,6.20
2023-02-23T21:54:51.026Z,6.20
2023-02-23T21:57:56.376Z,6.20
2023-02-23T22:00:59.344Z,6.20
2023-02-23T22:04:03.093Z,6.20
2023-02-23T22:07:06.532Z,6.20
2023-02-23T22:10:10.190Z,6.20
2023-02-23T22:13:14.486Z,6.20
2023-02-23T22:16:20.262Z,6.30
2023-02-23T22:19:23.205Z,6.30
2023-02-23T22:22:26.433Z,6.30
2023-02-23T22:25:29.444Z,6.30
2023-02-23T22:28:34.848Z,6.30
2023-02-23T22:31:38.717Z,6.20
2023-02-23T22:34:41.839Z,6.30
2023-02-23T22:37:44.791Z,6.20
2023-02-23T22:40:48.541Z,6.20
2023-02-23T22:43:52.839Z,6.20
2023-02-23T22:46:55.962Z,6.10
2023-02-23T22:49:59.632Z,6.10
2023-02-23T22:53:02.785Z,6.20
2023-02-23T22:56:06.439Z,6.10
2023-02-23T22:59:10.934Z,6.10
2023-02-23T23:02:13.891Z,6.00
2023-02-23T23:05:17.744Z,6.00
2023-02-23T23:08:20.717Z,6.00
2023-02-23T23:11:26.652Z,6.00
2023-02-23T23:14:32.587Z,6.00
2023-02-23T23:17:35.557Z,5.90
2023-02-23T23:20:38.529Z,5.90
2023-02-23T23:23:43.389Z,6.00
2023-02-23T23:26:46.347Z,5.90
2023-02-23T23:29:50.628Z,5.90
2023-02-23T23:32:53.763Z,5.90
2023-02-23T23:35:57.018Z,5.90
2023-02-23T23:39:01.177Z,6.00
2023-02-23T23:42:05.368Z,5.90
2023-02-23T23:45:12.543Z,5.70
2023-02-23T23:48:15.691Z,5.70
2023-02-23T23:51:18.879Z,5.70
2023-02-23T23:54:25.002Z,5.70
2023-02-23T23:57:28.150Z,5.70
